Time;durP1;ratioP1;P1;durP2;ratioP2;P2;SDS_P1;SDS_P2;PMS_P1;PMS_P2;Temp;Humidity;BMP_temperature;BMP_pressure;BME280_temperature;BME280_humidity;BME280_pressure;Samples;Min_cycle;Max_cycle;Signal;HPM_P1;HPM_P2
2023/05/04 00:01:45;;;;;;;15.73;9.18;;;12.50;99.90;;;;;;5121851;27;20096;-72
2023/05/04 00:04:12;;;;;;;12.05;9.20;;;12.60;99.90;;;;;;5117587;27;20494;-71
2023/05/04 00:06:38;;;;;;;13.18;8.63;;;12.50;99.90;;;;;;5122556;27;20023;-71
2023/05/04 00:09:05;;;;;;;13.18;9.32;;;12.40;99.90;;;;;;5123854;27;20019;-73
2023/05/04 00:11:32;;;;;;;12.88;8.48;;;12.40;99.90;;;;;;5121046;27;20059;-70
2023/05/04 00:13:58;;;;;;;12.63;8.65;;;12.50;99.90;;;;;;5131154;27;20468;-71
2023/05/04 00:16:23;;;;;;;19.02;9.18;;;12.50;99.90;;;;;;5115389;27;20096;-71
2023/05/04 00:18:49;;;;;;;15.27;9.50;;;12.40;99.90;;;;;;5117691;27;20065;-71
2023/05/04 00:21:15;;;;;;;15.48;9.70;;;12.50;99.90;;;;;;5123000;27;20527;-71
2023/05/04 00:23:40;;;;;;;13.65;9.10;;;12.40;99.90;;;;;;5129581;27;20020;-71
2023/05/04 00:26:06;;;;;;;13.23;9.40;;;12.40;99.90;;;;;;5119512;27;20031;-71
2023/05/04 00:28:32;;;;;;;17.67;9.07;;;12.40;99.90;;;;;;5122381;27;20023;-71
2023/05/04 00:30:58;;;;;;;12.88;9.07;;;12.40;99.90;;;;;;5120650;27;20046;-71
2023/05/04 00:33:23;;;;;;;15.93;10.05;;;12.40;99.90;;;;;;5121924;27;20028;-70
2023/05/04 00:35:49;;;;;;;15.68;10.05;;;12.40;99.90;;;;;;5122634;28;20027;-71
2023/05/04 00:38:18;;;;;;;13.90;9.35;;;12.40;99.90;;;;;;5116319;28;20072;-71
2023/05/04 00:40:44;;;;;;;14.40;9.80;;;12.30;99.90;;;;;;5128287;28;20072;-72
2023/05/04 00:43:10;;;;;;;16.88;10.02;;;12.30;99.90;;;;;;5123359;28;20090;-71
2023/05/04 00:45:36;;;;;;;15.20;8.80;;;12.30;99.90;;;;;;5124111;27;20467;-71
2023/05/04 00:48:03;;;;;;;16.15;9.70;;;12.30;99.90;;;;;;5123227;28;20023;-71
2023/05/04 00:50:29;;;;;;;16.33;9.13;;;12.30;99.90;;;;;;5111204;27;20479;-72
2023/05/04 00:52:58;;;;;;;12.63;9.25;;;12.30;99.90;;;;;;5100716;27;20507;-72
2023/05/04 00:55:24;;;;;;;12.25;9.02;;;12.20;99.90;;;;;;5121212;28;20031;-71
2023/05/04 00:57:51;;;;;;;14.23;8.13;;;12.30;99.90;;;;;;5118926;27;20023;-71
2023/05/04 01:00:17;;;;;;;17.63;9.02;;;12.20;99.90;;;;;;5124331;27;20035;-71
2023/05/04 01:02:43;;;;;;;12.60;9.20;;;12.20;99.90;;;;;;5122726;27;20023;-71
2023/05/04 01:05:11;;;;;;;13.63;8.60;;;12.20;99.90;;;;;;5122086;27;20098;-72
2023/05/04 01:08:00;;;;;;;15.95;9.38;;;12.20;99.90;;;;;;5119930;27;20023;-71
2023/05/04 01:10:38;;;;;;;13.20;8.52;;;12.20;99.90;;;;;;5121988;27;20368;-71
2023/05/04 01:13:14;;;;;;;11.70;8.57;;;12.10;99.90;;;;;;5123803;27;20049;-71
2023/05/04 01:15:40;;;;;;;14.00;9.25;;;12.10;99.90;;;;;;5122883;27;20039;-71
2023/05/04 01:18:06;;;;;;;18.05;9.50;;;12.10;99.90;;;;;;5122846;27;20489;-71
2023/05/04 01:20:32;;;;;;;12.10;9.70;;;12.10;99.90;;;;;;5124499;27;20107;-71
2023/05/04 01:22:58;;;;;;;11.43;9.07;;;12.00;99.90;;;;;;5120422;27;20075;-71
2023/05/04 01:25:29;;;;;;;14.55;9.18;;;12.10;99.90;;;;;;5126005;27;20383;-71
2023/05/04 01:28:16;;;;;;;18.30;9.57;;;12.00;99.90;;;;;;5126140;27;20026;-72
2023/05/04 01:30:43;;;;;;;15.18;9.18;;;12.00;99.90;;;;;;5119115;27;20028;-71
2023/05/04 01:33:11;;;;;;;19.35;9.32;;;12.00;99.90;;;;;;5123828;27;20471;-71
2023/05/04 01:35:37;;;;;;;14.00;9.30;;;12.00;99.90;;;;;;5123875;27;20043;-71
2023/05/04 01:38:03;;;;;;;18.05;9.65;;;11.90;99.90;;;;;;5123544;27;20116;-71
2023/05/04 01:40:28;;;;;;;19.15;8.57;;;11.90;99.90;;;;;;5124715;27;20569;-71
2023/05/04 01:42:54;;;;;;;11.73;9.05;;;11.90;99.90;;;;;;5120332;27;20019;-71
2023/05/04 01:45:20;;;;;;;15.25;9.43;;;11.90;99.90;;;;;;5123967;27;20035;-71
2023/05/04 01:47:47;;;;;;;17.70;9.88;;;11.90;99.90;;;;;;5122080;27;20011;-71
2023/05/04 01:50:12;;;;;;;11.80;9.52;;;11.80;99.90;;;;;;5129489;27;20029;-71
2023/05/04 01:52:38;;;;;;;13.57;10.25;;;11.80;99.90;;;;;;5130350;27;20035;-72
2023/05/04 01:55:04;;;;;;;17.85;9.80;;;11.70;99.90;;;;;;5120372;27;20144;-71
2023/05/04 01:57:30;;;;;;;14.60;8.65;;;11.70;99.90;;;;;;5121292;27;20015;-71
2023/05/04 01:59:56;;;;;;;13.40;8.77;;;11.70;99.90;;;;;;5121218;27;20024;-71
2023/05/04 02:02:22;;;;;;;17.23;9.80;;;11.70;99.90;;;;;;5125588;27;20039;-71
2023/05/04 02:04:47;;;;;;;17.80;9.57;;;11.70;99.90;;;;;;5127718;27;20106;-71
2023/05/04 02:07:13;;;;;;;13.55;9.35;;;11.70;99.90;;;;;;5125594;27;20110;-71
2023/05/04 02:09:39;;;;;;;13.65;9.40;;;11.60;99.90;;;;;;5121429;27;20046;-71
2023/05/04 02:12:04;;;;;;;15.68;9.82;;;11.60;99.90;;;;;;5121376;27;20023;-71
2023/05/04 02:14:30;;;;;;;15.85;9.52;;;11.70;99.90;;;;;;5127219;27;20947;-71
2023/05/04 02:16:56;;;;;;;13.55;9.40;;;11.60;99.90;;;;;;5122377;27;20027;-70
2023/05/04 02:19:22;;;;;;;21.90;10.98;;;11.60;99.90;;;;;;5125137;27;20016;-71
2023/05/04 02:21:47;;;;;;;18.83;10.23;;;11.70;99.90;;;;;;5122492;27;20383;-71
2023/05/04 02:24:13;;;;;;;16.60;10.43;;;11.60;99.90;;;;;;5126224;27;20020;-70
2023/05/04 02:26:39;;;;;;;13.80;9.88;;;11.60;99.90;;;;;;5121778;27;20551;-71
2023/05/04 02:29:05;;;;;;;16.50;9.45;;;11.60;99.90;;;;;;5130208;27;20023;-71
2023/05/04 02:31:33;;;;;;;14.30;10.00;;;11.50;99.90;;;;;;5124337;27;20451;-71
2023/05/04 02:34:00;;;;;;;19.27;10.15;;;11.50;99.90;;;;;;5124015;27;20499;-71
2023/05/04 02:36:26;;;;;;;17.83;11.48;;;11.50;99.90;;;;;;5120690;27;20054;-71
2023/05/04 02:38:53;;;;;;;16.55;10.50;;;11.50;99.90;;;;;;5123986;27;20011;-71
2023/05/04 02:41:19;;;;;;;15.15;11.00;;;11.50;99.90;;;;;;5121926;27;20032;-71
2023/05/04 02:43:45;;;;;;;17.38;10.65;;;11.50;99.90;;;;;;5124710;27;20110;-71
2023/05/04 02:46:11;;;;;;;18.08;10.50;;;11.40;99.90;;;;;;5130801;27;20039;-71
2023/05/04 02:48:36;;;;;;;16.83;10.32;;;11.50;99.90;;;;;;5129678;27;20060;-71
2023/05/04 02:51:03;;;;;;;15.35;11.00;;;11.50;99.90;;;;;;5119933;27;20027;-72
2023/05/04 02:53:28;;;;;;;17.23;11.43;;;11.50;99.90;;;;;;5126139;27;20023;-71
2023/05/04 02:55:54;;;;;;;14.82;10.70;;;11.50;99.90;;;;;;5124273;27;20037;-71
2023/05/04 02:58:20;;;;;;;15.20;10.98;;;11.50;99.90;;;;;;5124495;27;20115;-71
2023/05/04 03:00:45;;;;;;;16.17;10.68;;;11.50;99.90;;;;;;5123054;27;20031;-71
2023/05/04 03:03:11;;;;;;;15.95;11.13;;;11.30;99.90;;;;;;5124544;27;20065;-71
2023/05/04 03:05:37;;;;;;;19.48;11.38;;;11.30;99.90;;;;;;5124689;27;20032;-71
2023/05/04 03:08:03;;;;;;;19.48;10.50;;;11.20;99.90;;;;;;5122860;27;20505;-71
2023/05/04 03:10:29;;;;;;;16.15;10.48;;;11.20;99.90;;;;;;5124893;27;20400;-71
2023/05/04 03:12:54;;;;;;;16.90;11.50;;;11.20;99.90;;;;;;5117894;27;20031;-71
2023/05/04 03:15:20;;;;;;;17.13;10.32;;;11.20;99.90;;;;;;5134331;27;20042;-71
2023/05/04 03:17:46;;;;;;;16.45;12.13;;;11.20;99.90;;;;;;5119322;27;20039;-71
2023/05/04 03:20:12;;;;;;;15.57;10.55;;;11.20;99.90;;;;;;5123939;27;20019;-71
2023/05/04 03:22:38;;;;;;;13.48;10.70;;;11.20;99.90;;;;;;5121375;27;20023;-71
2023/05/04 03:25:05;;;;;;;15.75;10.60;;;11.10;99.90;;;;;;5125409;27;20479;-71
2023/05/04 03:27:30;;;;;;;16.98;11.35;;;11.10;99.90;;;;;;5119233;27;20030;-71
2023/05/04 03:29:56;;;;;;;17.25;11.25;;;11.10;99.90;;;;;;5126783;27;20479;-71
2023/05/04 03:32:23;;;;;;;16.67;10.98;;;11.10;99.90;;;;;;5116562;27;20027;-71
2023/05/04 03:34:49;;;;;;;16.38;11.35;;;10.90;99.90;;;;;;5121102;27;20428;-71
2023/05/04 03:37:15;;;;;;;17.80;11.45;;;10.90;99.90;;;;;;5126631;27;20125;-71
2023/05/04 03:39:41;;;;;;;18.70;11.18;;;10.80;99.90;;;;;;5123627;27;20029;-71
2023/05/04 03:42:06;;;;;;;20.80;11.98;;;10.80;99.90;;;;;;5126766;27;20374;-71
2023/05/04 03:44:32;;;;;;;13.95;10.70;;;10.90;99.90;;;;;;5124443;27;20031;-71
2023/05/04 03:46:58;;;;;;;22.80;12.20;;;10.90;99.90;;;;;;5121823;27;20523;-72
2023/05/04 03:49:23;;;;;;;17.08;12.05;;;10.90;99.90;;;;;;5119328;27;20442;-71
2023/05/04 03:51:49;;;;;;;17.58;12.18;;;10.90;99.90;;;;;;5127693;27;20088;-71
2023/05/04 03:54:15;;;;;;;18.25;12.40;;;10.90;99.90;;;;;;5116627;27;20119;-71
2023/05/04 03:56:41;;;;;;;17.90;13.10;;;10.90;99.90;;;;;;5123672;27;20045;-70
2023/05/04 03:59:06;;;;;;;20.35;13.02;;;10.90;99.90;;;;;;5120711;27;20103;-71
2023/05/04 04:01:32;;;;;;;15.77;11.73;;;10.80;99.90;;;;;;5125736;27;20023;-71
2023/05/04 04:03:57;;;;;;;17.90;12.20;;;10.90;99.90;;;;;;5126776;27;20027;-71
2023/05/04 04:06:23;;;;;;;17.08;10.85;;;10.80;99.90;;;;;;5124051;27;20379;-71
2023/05/04 04:08:49;;;;;;;18.77;12.50;;;10.80;99.90;;;;;;5117507;27;20492;-71
2023/05/04 04:11:14;;;;;;;19.27;12.65;;;10.70;99.90;;;;;;5118421;27;20028;-71
2023/05/04 04:13:40;;;;;;;18.38;11.85;;;10.80;99.90;;;;;;5131243;27;20368;-71
2023/05/04 04:16:05;;;;;;;17.00;12.30;;;10.60;99.90;;;;;;5117339;27;20528;-71
2023/05/04 04:18:31;;;;;;;18.55;12.30;;;10.60;99.90;;;;;;5121609;27;20078;-72
2023/05/04 04:20:57;;;;;;;19.95;11.93;;;10.70;99.90;;;;;;5120085;27;20023;-71
2023/05/04 04:23:23;;;;;;;15.13;11.52;;;10.70;99.90;;;;;;5121116;27;20047;-71
2023/05/04 04:25:50;;;;;;;20.48;11.45;;;10.60;99.90;;;;;;5124304;27;20110;-71
2023/05/04 04:28:16;;;;;;;20.02;12.40;;;10.70;99.90;;;;;;5120345;27;20023;-71
2023/05/04 04:30:42;;;;;;;23.10;13.18;;;10.70;99.90;;;;;;5119263;27;20022;-71
2023/05/04 04:33:08;;;;;;;19.63;12.45;;;10.70;99.90;;;;;;5131234;27;20012;-71
2023/05/04 04:35:33;;;;;;;18.38;11.63;;;10.60;99.90;;;;;;5129861;27;20110;-71
2023/05/04 04:37:59;;;;;;;18.70;12.52;;;10.60;99.90;;;;;;5130582;27;20455;-71
2023/05/04 04:40:25;;;;;;;20.58;12.38;;;10.60;99.90;;;;;;5129497;27;20020;-71
2023/05/04 04:42:51;;;;;;;15.70;12.00;;;10.60;99.90;;;;;;5128836;27;20028;-71
2023/05/04 04:45:17;;;;;;;19.30;12.45;;;10.70;99.90;;;;;;5130990;27;20030;-71
2023/05/04 04:47:44;;;;;;;16.02;11.55;;;10.70;99.90;;;;;;5129441;27;20027;-71
2023/05/04 04:50:10;;;;;;;19.25;13.15;;;10.70;99.90;;;;;;5125826;27;20129;-71
2023/05/04 04:52:36;;;;;;;18.83;12.82;;;10.70;99.90;;;;;;5129714;27;20031;-71
2023/05/04 04:55:03;;;;;;;16.48;12.02;;;10.70;99.90;;;;;;5126402;27;20143;-71
2023/05/04 04:57:29;;;;;;;18.55;12.02;;;10.70;99.90;;;;;;5125860;27;20018;-71
2023/05/04 04:59:55;;;;;;;21.88;12.93;;;10.80;99.90;;;;;;5129553;27;20038;-71
2023/05/04 05:02:21;;;;;;;20.15;12.38;;;10.80;99.90;;;;;;5129020;27;20514;-71
2023/05/04 05:04:47;;;;;;;22.10;13.30;;;10.80;99.90;;;;;;5132428;27;20088;-72
2023/05/04 05:07:14;;;;;;;18.83;12.50;;;10.90;99.90;;;;;;5130137;27;20055;-71
2023/05/04 05:09:40;;;;;;;17.42;12.73;;;10.90;99.90;;;;;;5131657;27;20027;-72
2023/05/04 05:12:05;;;;;;;19.17;12.27;;;10.90;99.90;;;;;;5128617;27;20027;-71
2023/05/04 05:14:31;;;;;;;17.25;12.43;;;11.00;99.90;;;;;;5125814;27;20024;-72
2023/05/04 05:16:58;;;;;;;18.00;12.70;;;11.00;99.90;;;;;;5130033;27;20083;-71
2023/05/04 05:19:24;;;;;;;18.33;12.32;;;11.00;99.90;;;;;;5128761;27;20059;-71
2023/05/04 05:21:51;;;;;;;15.38;10.93;;;10.90;99.90;;;;;;5128032;27;20046;-72
2023/05/04 05:24:16;;;;;;;13.93;10.15;;;11.00;99.90;;;;;;5131639;27;20027;-71
2023/05/04 05:26:42;;;;;;;23.08;12.65;;;11.10;99.90;;;;;;5125910;27;20023;-71
2023/05/04 05:29:08;;;;;;;22.23;12.27;;;11.10;99.90;;;;;;5136584;27;20170;-71
2023/05/04 05:31:34;;;;;;;22.52;13.10;;;11.10;99.90;;;;;;5129581;27;20050;-71
2023/05/04 05:33:59;;;;;;;21.70;12.43;;;11.20;99.90;;;;;;5124783;27;20023;-71
2023/05/04 05:36:26;;;;;;;17.02;11.82;;;11.20;99.90;;;;;;5137382;27;20495;-71
2023/05/04 05:38:51;;;;;;;16.90;12.00;;;11.20;99.90;;;;;;5126981;27;20062;-71
2023/05/04 05:41:17;;;;;;;19.40;12.60;;;11.30;99.90;;;;;;5132528;27;20039;-71
2023/05/04 05:43:43;;;;;;;15.68;11.90;;;11.30;99.90;;;;;;5136482;27;20030;-71
2023/05/04 05:46:09;;;;;;;17.85;11.77;;;11.30;99.90;;;;;;5122387;27;20016;-72
2023/05/04 05:48:35;;;;;;;18.45;11.52;;;11.30;99.90;;;;;;5127619;27;20027;-72
2023/05/04 05:51:01;;;;;;;20.20;12.10;;;11.40;99.90;;;;;;5122326;27;20058;-71
2023/05/04 05:53:26;;;;;;;16.48;12.45;;;11.40;99.90;;;;;;5128281;27;20035;-72
2023/05/04 05:55:52;;;;;;;22.02;13.07;;;11.50;99.90;;;;;;5125761;27;20028;-71
2023/05/04 05:58:18;;;;;;;19.02;12.38;;;11.50;99.90;;;;;;5125587;27;20027;-72
2023/05/04 06:00:43;;;;;;;15.30;10.90;;;11.60;99.90;;;;;;5123461;27;20027;-71
2023/05/04 06:03:09;;;;;;;23.10;11.82;;;11.60;99.90;;;;;;5128044;27;20034;-71
2023/05/04 06:05:35;;;;;;;16.95;10.85;;;11.70;99.90;;;;;;5121414;27;20480;-71
2023/05/04 06:08:00;;;;;;;21.77;12.27;;;11.70;99.90;;;;;;5124794;27;20058;-71
2023/05/04 06:10:26;;;;;;;16.80;11.50;;;11.80;99.90;;;;;;5122609;27;20027;-71
2023/05/04 06:12:52;;;;;;;17.15;11.43;;;11.80;99.90;;;;;;5124710;27;20028;-72
2023/05/04 06:15:18;;;;;;;17.58;10.15;;;11.90;99.90;;;;;;5126234;27;20062;-71
2023/05/04 06:17:44;;;;;;;20.35;11.23;;;11.80;99.90;;;;;;5123010;27;20033;-71
2023/05/04 06:20:10;;;;;;;18.85;10.55;;;11.90;99.90;;;;;;5125048;27;20023;-70
2023/05/04 06:22:36;;;;;;;15.48;10.20;;;12.00;99.90;;;;;;5124649;27;20082;-71
2023/05/04 06:25:02;;;;;;;14.82;9.77;;;12.00;99.90;;;;;;5126945;27;20499;-71
2023/05/04 06:27:30;;;;;;;16.20;10.25;;;12.00;99.90;;;;;;5125856;27;20483;-71
2023/05/04 06:29:56;;;;;;;17.63;9.93;;;12.10;99.90;;;;;;5119084;27;20019;-72
2023/05/04 06:32:22;;;;;;;15.35;9.68;;;12.10;99.90;;;;;;5123469;27;20023;-71
2023/05/04 06:34:47;;;;;;;11.32;9.15;;;12.20;99.90;;;;;;5124164;27;20012;-71
2023/05/04 06:37:14;;;;;;;15.60;8.70;;;12.30;99.90;;;;;;5124351;27;20093;-70
2023/05/04 06:39:39;;;;;;;11.80;7.60;;;12.20;99.90;;;;;;5127684;27;20023;-71
2023/05/04 06:42:05;;;;;;;15.00;8.95;;;12.20;99.90;;;;;;5133734;27;20038;-71
2023/05/04 06:44:36;;;;;;;13.75;8.40;;;12.30;99.90;;;;;;5135253;27;20019;-71
2023/05/04 06:47:02;;;;;;;12.25;8.10;;;12.40;99.90;;;;;;5134984;27;20030;-71
2023/05/04 06:49:30;;;;;;;17.88;6.88;;;12.50;99.90;;;;;;5135255;27;20098;-70
2023/05/04 06:51:56;;;;;;;12.57;6.53;;;12.60;99.90;;;;;;5125932;27;20427;-70
2023/05/04 06:54:21;;;;;;;10.20;6.57;;;12.70;99.90;;;;;;5132354;27;20049;-70
2023/05/04 06:56:47;;;;;;;11.75;7.32;;;12.70;99.90;;;;;;5134089;27;20035;-70
2023/05/04 06:59:13;;;;;;;9.57;6.63;;;12.60;99.90;;;;;;5135104;27;20019;-71
2023/05/04 07:01:38;;;;;;;10.98;7.40;;;12.70;99.90;;;;;;5134484;27;20076;-70
2023/05/04 07:04:04;;;;;;;12.98;6.85;;;12.80;99.90;;;;;;5134702;27;20467;-71
2023/05/04 07:06:31;;;;;;;11.93;6.28;;;12.90;99.90;;;;;;5134530;27;20034;-70
2023/05/04 07:08:56;;;;;;;16.15;6.55;;;13.00;99.90;;;;;;5133034;27;20381;-70
2023/05/04 07:11:22;;;;;;;11.07;6.50;;;13.20;99.90;;;;;;5134152;27;20592;-71
2023/05/04 07:13:49;;;;;;;13.63;7.28;;;13.30;99.90;;;;;;5134691;27;20506;-71
2023/05/04 07:16:14;;;;;;;11.52;6.43;;;13.30;99.90;;;;;;5133206;27;20038;-71
2023/05/04 07:18:40;;;;;;;12.52;6.72;;;13.50;99.90;;;;;;5134578;27;20019;-70
2023/05/04 07:21:10;;;;;;;7.53;5.90;;;13.60;99.90;;;;;;5133937;27;20035;-71
2023/05/04 07:23:36;;;;;;;12.27;6.30;;;13.70;99.90;;;;;;5133574;27;20027;-69
2023/05/04 07:26:03;;;;;;;10.13;5.95;;;13.80;99.90;;;;;;5131278;27;20498;-70
2023/05/04 07:28:29;;;;;;;10.60;6.18;;;13.90;99.90;;;;;;5128429;27;20104;-70
2023/05/04 07:30:54;;;;;;;11.27;5.20;;;14.00;99.90;;;;;;5133916;27;20441;-69
2023/05/04 07:33:21;;;;;;;9.45;6.32;;;14.10;99.90;;;;;;5134262;27;20039;-70
2023/05/04 07:35:46;;;;;;;11.07;6.15;;;14.20;99.90;;;;;;5131924;27;20027;-69
2023/05/04 07:38:12;;;;;;;9.10;6.10;;;14.30;99.90;;;;;;5131800;27;20064;-70
2023/05/04 07:40:38;;;;;;;10.68;5.82;;;14.50;99.90;;;;;;5132255;27;20491;-69
2023/05/04 07:43:04;;;;;;;11.65;6.50;;;14.60;99.90;;;;;;5132551;27;20083;-70
2023/05/04 07:45:30;;;;;;;12.63;5.70;;;14.80;99.90;;;;;;5131835;27;20118;-71
2023/05/04 07:47:56;;;;;;;15.52;5.70;;;14.90;99.90;;;;;;5131575;27;20130;-72
2023/05/04 07:50:21;;;;;;;7.63;5.43;;;15.00;99.90;;;;;;5132594;27;20027;-69
2023/05/04 07:52:48;;;;;;;12.43;5.53;;;15.00;99.90;;;;;;5133710;27;20050;-70
2023/05/04 07:55:14;;;;;;;10.07;5.65;;;15.10;99.90;;;;;;5132987;27;20031;-70
2023/05/04 07:57:40;;;;;;;12.10;4.78;;;15.10;99.90;;;;;;5133803;27;20015;-72
2023/05/04 08:00:07;;;;;;;7.85;5.03;;;15.20;99.90;;;;;;5131128;27;20102;-72
2023/05/04 08:02:33;;;;;;;12.35;5.15;;;15.30;99.90;;;;;;5133478;27;20084;-72
2023/05/04 08:04:59;;;;;;;8.43;5.10;;;15.50;99.90;;;;;;5132699;27;20050;-72
2023/05/04 08:07:24;;;;;;;9.02;5.13;;;15.70;99.90;;;;;;5132168;27;20046;-72
2023/05/04 08:09:51;;;;;;;9.40;4.97;;;15.70;99.90;;;;;;5132123;27;20027;-72
2023/05/04 08:12:16;;;;;;;9.25;5.90;;;15.80;99.90;;;;;;5132182;27;20023;-72
2023/05/04 08:14:46;;;;;;;8.55;5.72;;;16.00;99.90;;;;;;5133256;27;20375;-72
2023/05/04 08:17:11;;;;;;;8.85;5.60;;;16.10;99.90;;;;;;5123013;27;20519;-71
2023/05/04 08:19:37;;;;;;;8.25;5.75;;;16.10;99.90;;;;;;5126137;27;20032;-72
2023/05/04 08:22:03;;;;;;;12.05;5.93;;;16.20;99.90;;;;;;5131773;27;20108;-71
2023/05/04 08:24:29;;;;;;;7.85;5.85;;;16.40;99.90;;;;;;5131483;27;20209;-71
2023/05/04 08:26:55;;;;;;;12.80;6.50;;;16.50;99.90;;;;;;5131828;27;20050;-72
2023/05/04 08:29:21;;;;;;;8.65;6.10;;;16.70;99.90;;;;;;5131521;27;20459;-71
2023/05/04 08:31:48;;;;;;;9.25;6.25;;;16.80;99.90;;;;;;5131687;28;20023;-73
2023/05/04 08:34:15;;;;;;;10.75;6.15;;;16.80;99.90;;;;;;5129249;28;20039;-72
2023/05/04 08:36:41;;;;;;;11.25;6.20;;;17.00;99.90;;;;;;5131467;27;20386;-71
2023/05/04 08:39:07;;;;;;;8.15;5.28;;;17.20;99.90;;;;;;5131226;28;20015;-72
2023/05/04 08:41:37;;;;;;;11.52;5.47;;;17.40;99.90;;;;;;5133008;27;20031;-71
2023/05/04 08:44:09;;;;;;;13.35;5.80;;;17.50;99.90;;;;;;5117913;27;20007;-71
2023/05/04 08:46:36;;;;;;;12.40;5.65;;;17.60;99.90;;;;;;5113869;28;20373;-72
2023/05/04 08:49:02;;;;;;;10.82;6.78;;;17.80;99.90;;;;;;5112446;28;20028;-71
2023/05/04 08:51:30;;;;;;;9.35;6.15;;;17.80;99.90;;;;;;5119242;27;20031;-71
2023/05/04 08:53:57;;;;;;;10.40;5.45;;;17.90;99.90;;;;;;5125003;27;20099;-72
2023/05/04 08:56:24;;;;;;;17.58;6.30;;;17.90;99.90;;;;;;5130463;27;20095;-72
2023/05/04 08:58:51;;;;;;;8.10;5.63;;;18.10;99.90;;;;;;5133358;27;20043;-71
2023/05/04 09:01:18;;;;;;;12.32;6.28;;;18.20;99.90;;;;;;5131814;27;20543;-72
2023/05/04 09:03:46;;;;;;;13.00;5.65;;;18.30;99.90;;;;;;5132447;27;20058;-72
2023/05/04 09:06:12;;;;;;;9.88;5.70;;;18.50;99.90;;;;;;5120196;27;20023;-72
2023/05/04 09:08:39;;;;;;;13.05;5.93;;;18.70;99.90;;;;;;5098238;28;20023;-71
2023/05/04 09:11:05;;;;;;;13.57;5.85;;;18.70;99.90;;;;;;5122362;27;20019;-72
2023/05/04 09:13:31;;;;;;;17.30;5.30;;;18.90;99.90;;;;;;5120820;28;20031;-72
2023/05/04 09:15:57;;;;;;;8.60;5.45;;;19.10;99.90;;;;;;5111989;28;20031;-71
2023/05/04 09:18:34;;;;;;;10.82;5.50;;;19.20;99.90;;;;;;5120993;27;20018;-71
2023/05/04 09:20:59;;;;;;;13.93;5.20;;;19.30;99.90;;;;;;5126713;27;20079;-69
2023/05/04 09:23:26;;;;;;;11.23;5.38;;;19.50;99.90;;;;;;5126481;27;20023;-69
2023/05/04 09:25:53;;;;;;;8.57;4.90;;;19.50;99.90;;;;;;5127822;27;20015;-70
2023/05/04 09:28:21;;;;;;;10.65;5.15;;;19.60;99.90;;;;;;5123806;27;20016;-69
2023/05/04 09:30:50;;;;;;;10.85;5.53;;;19.80;99.90;;;;;;5124923;27;20033;-69
2023/05/04 09:33:23;;;;;;;14.57;5.55;;;20.00;99.90;;;;;;5125192;27;20012;-69
2023/05/04 09:35:50;;;;;;;10.32;5.40;;;20.20;99.90;;;;;;5121249;27;20047;-69
2023/05/04 09:38:30;;;;;;;13.43;5.63;;;20.10;99.90;;;;;;5123962;27;20019;-68
2023/05/04 09:40:56;;;;;;;12.48;5.85;;;20.20;99.90;;;;;;5123590;27;20483;-69
2023/05/04 09:43:23;;;;;;;11.90;5.68;;;20.30;99.90;;;;;;5125774;27;20031;-69
2023/05/04 09:45:50;;;;;;;11.55;6.05;;;20.40;99.90;;;;;;5121754;27;20379;-68
2023/05/04 09:48:17;;;;;;;8.80;4.97;;;20.50;99.90;;;;;;5120775;27;20027;-68
2023/05/04 09:50:53;;;;;;;8.38;5.03;;;20.80;99.90;;;;;;5128425;27;20371;-68
2023/05/04 09:53:22;;;;;;;5.80;5.18;;;20.90;99.90;;;;;;5123851;27;20483;-70
2023/05/04 09:55:55;;;;;;;11.00;5.70;;;21.10;99.90;;;;;;5124551;27;20503;-69
2023/05/04 09:58:22;;;;;;;7.38;4.78;;;21.10;99.90;;;;;;5127751;27;20035;-70
2023/05/04 10:00:48;;;;;;;9.15;5.68;;;21.20;99.90;;;;;;5125812;27;20417;-70
2023/05/04 10:03:14;;;;;;;7.88;5.57;;;21.20;99.90;;;;;;5124198;27;20027;-69
2023/05/04 10:05:40;;;;;;;5.80;5.15;;;21.30;99.90;;;;;;5124460;27;20024;-70
2023/05/04 10:08:06;;;;;;;9.63;5.15;;;21.40;99.90;;;;;;5119343;27;20023;-70
2023/05/04 10:10:33;;;;;;;13.85;6.80;;;21.60;99.90;;;;;;5123364;27;20035;-70
2023/05/04 10:12:59;;;;;;;9.02;5.53;;;21.70;99.90;;;;;;5124193;27;20026;-69
2023/05/04 10:15:25;;;;;;;8.13;5.90;;;21.80;99.90;;;;;;5124990;27;20364;-70
2023/05/04 10:18:12;;;;;;;8.20;5.00;;;22.00;99.90;;;;;;5123230;27;20368;-70
2023/05/04 10:21:02;;;;;;;9.02;5.72;;;22.10;99.90;;;;;;5124810;27;20050;-70
2023/05/04 10:23:28;;;;;;;9.25;4.95;;;22.20;99.90;;;;;;5123579;27;20019;-70
2023/05/04 10:26:03;;;;;;;7.03;5.13;;;22.30;99.90;;;;;;5121180;27;20089;-69
2023/05/04 10:28:38;;;;;;;11.65;5.45;;;22.50;99.90;;;;;;5120787;27;20099;-68
2023/05/04 10:31:05;;;;;;;7.90;5.55;;;22.60;99.90;;;;;;5125073;27;20107;-68
2023/05/04 10:33:39;;;;;;;7.32;5.15;;;22.50;99.90;;;;;;5125403;27;20019;-68
2023/05/04 10:36:05;;;;;;;7.95;4.82;;;22.60;99.90;;;;;;5125085;27;20027;-69
2023/05/04 10:38:35;;;;;;;13.60;5.75;;;22.70;99.90;;;;;;5124846;27;20020;-69
2023/05/04 10:41:16;;;;;;;8.85;5.90;;;22.70;99.70;;;;;;5120386;27;20030;-69
2023/05/04 10:43:47;;;;;;;6.40;5.28;;;22.80;99.60;;;;;;5116319;27;20031;-70
2023/05/04 10:46:22;;;;;;;10.35;6.38;;;23.00;99.90;;;;;;5122725;27;20375;-70
2023/05/04 10:48:49;;;;;;;5.75;5.00;;;23.00;98.30;;;;;;5123002;27;20058;-70
2023/05/04 10:51:23;;;;;;;6.50;4.78;;;23.20;99.90;;;;;;5120127;27;20019;-70
2023/05/04 10:53:50;;;;;;;10.88;5.90;;;23.40;99.90;;;;;;5123404;27;20038;-70
2023/05/04 10:56:26;;;;;;;7.50;5.30;;;23.20;98.30;;;;;;5120552;27;20534;-70
2023/05/04 10:58:53;;;;;;;9.25;4.97;;;23.20;98.30;;;;;;5122218;27;20023;-71
2023/05/04 11:01:20;;;;;;;7.57;5.47;;;23.40;98.00;;;;;;5116648;27;20030;-70
2023/05/04 11:03:47;;;;;;;6.25;4.47;;;23.40;97.70;;;;;;5118459;27;20531;-70
2023/05/04 11:06:18;;;;;;;8.63;4.80;;;23.30;98.50;;;;;;5121648;27;20111;-70
2023/05/04 11:08:46;;;;;;;7.95;5.43;;;23.50;99.80;;;;;;5124850;27;20027;-70
2023/05/04 11:11:12;;;;;;;9.30;5.63;;;23.50;98.60;;;;;;5117643;27;20502;-70
2023/05/04 11:13:46;;;;;;;6.20;5.03;;;23.40;98.50;;;;;;5125715;27;20039;-71
2023/05/04 11:16:13;;;;;;;8.23;4.82;;;23.60;98.80;;;;;;5112999;27;20035;-71
2023/05/04 11:18:40;;;;;;;6.25;5.20;;;23.70;97.60;;;;;;5120691;27;20341;-71
2023/05/04 11:21:07;;;;;;;7.38;4.88;;;23.70;98.00;;;;;;5121829;27;20076;-70
2023/05/04 11:23:33;;;;;;;7.72;4.88;;;24.00;98.60;;;;;;5126464;27;20106;-71
2023/05/04 11:26:11;;;;;;;7.85;5.10;;;24.00;97.40;;;;;;5115600;27;20535;-70
2023/05/04 11:28:38;;;;;;;8.55;5.18;;;24.10;97.70;;;;;;5115735;27;20055;-70
2023/05/04 11:31:18;;;;;;;5.40;4.55;;;23.90;96.40;;;;;;5122711;27;20058;-72
2023/05/04 11:33:48;;;;;;;7.13;4.88;;;24.10;96.90;;;;;;5123064;27;20142;-71
2023/05/04 11:36:14;;;;;;;9.32;5.28;;;24.10;97.30;;;;;;5122409;27;20070;-70
2023/05/04 11:38:41;;;;;;;6.57;4.90;;;24.10;97.20;;;;;;5118646;27;20027;-71
2023/05/04 11:41:07;;;;;;;9.32;5.63;;;24.30;97.40;;;;;;5122300;27;20027;-72
2023/05/04 11:43:34;;;;;;;11.88;5.75;;;24.50;99.70;;;;;;5118517;27;20042;-70
2023/05/04 11:46:01;;;;;;;10.15;5.40;;;24.60;96.80;;;;;;5125969;27;20571;-72
2023/05/04 11:48:30;;;;;;;8.40;6.13;;;24.60;97.60;;;;;;5122125;27;20349;-72
2023/05/04 11:50:57;;;;;;;8.73;5.82;;;24.70;97.70;;;;;;5121518;27;20049;-72
2023/05/04 11:53:23;;;;;;;7.63;5.50;;;24.80;98.90;;;;;;5125138;27;20415;-72
2023/05/04 11:55:49;;;;;;;7.85;5.70;;;24.70;98.20;;;;;;5125861;27;20542;-71
2023/05/04 11:58:22;;;;;;;7.82;5.28;;;24.70;96.70;;;;;;5118176;27;20080;-72
2023/05/04 12:00:50;;;;;;;6.00;4.80;;;24.60;96.60;;;;;;5110179;27;20039;-72
2023/05/04 12:03:22;;;;;;;9.70;4.95;;;24.70;97.10;;;;;;5119763;27;20099;-71
2023/05/04 12:05:52;;;;;;;;;;;24.60;96.60;;;;;;5123130;27;20042;-72
2023/05/04 12:08:25;;;;;;;8.57;4.75;;;24.80;98.10;;;;;;5120273;27;19915;-72
2023/05/04 12:11:24;;;;;;;7.40;5.20;;;25.20;97.40;;;;;;5117598;27;20138;-71
2023/05/04 12:14:05;;;;;;;8.25;5.28;;;25.20;96.40;;;;;;5119795;27;20027;-72
2023/05/04 12:16:32;;;;;;;5.70;4.13;;;25.00;97.00;;;;;;5119600;27;20036;-71
2023/05/04 12:19:15;;;;;;;6.80;5.75;;;25.10;97.00;;;;;;5118442;27;20031;-72
2023/05/04 12:21:52;;;;;;;7.15;4.63;;;25.20;96.80;;;;;;5111184;27;20022;-72
2023/05/04 12:24:21;;;;;;;9.75;4.28;;;25.20;97.30;;;;;;5122930;27;20052;-72
2023/05/04 12:26:47;;;;;;;6.20;4.60;;;25.30;96.20;;;;;;5120985;27;20054;-73
2023/05/04 12:29:13;;;;;;;8.50;5.18;;;25.00;94.40;;;;;;5115355;27;20126;-72
2023/05/04 12:31:38;;;;;;;8.75;4.53;;;25.00;96.60;;;;;;5119489;28;20415;-72
2023/05/04 12:34:04;;;;;;;8.05;4.20;;;24.70;94.90;;;;;;5120439;28;20027;-72
2023/05/04 12:36:30;;;;;;;6.50;4.40;;;24.70;95.90;;;;;;5116124;28;20035;-72